sensor_id;sensor_type;location;lat;lon;timestamp;P1;durP1;ratioP1;P2;durP2;ratioP2
36445;SDS011;22472;50.848;-1.216;2023-07-13T00:02:06;10.57;;;2.20;;
36445;SDS011;22472;50.848;-1.216;2023-07-13T00:04:34;8.70;;;1.80;;
36445;SDS011;22472;50.848;-1.216;2023-07-13T00:07:02;8.20;;;1.90;;
36445;SDS011;22472;50.848;-1.216;2023-07-13T00:09:30;8.60;;;1.85;;
36445;SDS011;22472;50.848;-1.216;2023-07-13T00:11:57;9.23;;;1.85;;
36445;SDS011;22472;50.848;-1.216;2023-07-13T00:14:25;10.45;;;1.85;;
36445;SDS011;22472;50.848;-1.216;2023-07-13T00:16:53;4.65;;;1.40;;
36445;SDS011;22472;50.848;-1.216;2023-07-13T00:19:20;10.65;;;2.05;;
36445;SDS011;22472;50.848;-1.216;2023-07-13T00:21:47;8.50;;;1.90;;
36445;SDS011;22472;50.848;-1.216;2023-07-13T00:24:17;8.23;;;1.70;;
36445;SDS011;22472;50.848;-1.216;2023-07-13T00:26:48;9.55;;;1.95;;
36445;SDS011;22472;50.848;-1.216;2023-07-13T00:29:16;7.57;;;1.63;;
36445;SDS011;22472;50.848;-1.216;2023-07-13T00:31:43;9.68;;;1.88;;
36445;SDS011;22472;50.848;-1.216;2023-07-13T00:34:11;11.88;;;2.17;;
36445;SDS011;22472;50.848;-1.216;2023-07-13T00:36:38;7.93;;;1.60;;
36445;SDS011;22472;50.848;-1.216;2023-07-13T00:39:05;12.88;;;2.17;;
36445;SDS011;22472;50.848;-1.216;2023-07-13T00:41:34;8.68;;;1.70;;
36445;SDS011;22472;50.848;-1.216;2023-07-13T00:44:02;11.02;;;2.20;;
36445;SDS011;22472;50.848;-1.216;2023-07-13T00:46:29;6.85;;;1.70;;
36445;SDS011;22472;50.848;-1.216;2023-07-13T00:48:57;8.27;;;1.85;;
36445;SDS011;22472;50.848;-1.216;2023-07-13T00:51:28;7.10;;;1.63;;
36445;SDS011;22472;50.848;-1.216;2023-07-13T00:53:58;8.25;;;1.60;;
36445;SDS011;22472;50.848;-1.216;2023-07-13T00:56:26;8.50;;;1.65;;
36445;SDS011;22472;50.848;-1.216;2023-07-13T00:58:55;7.78;;;1.45;;
36445;SDS011;22472;50.848;-1.216;2023-07-13T01:01:22;7.45;;;1.65;;
36445;SDS011;22472;50.848;-1.216;2023-07-13T01:03:49;7.60;;;1.63;;
36445;SDS011;22472;50.848;-1.216;2023-07-13T01:06:17;7.50;;;1.13;;
36445;SDS011;22472;50.848;-1.216;2023-07-13T01:08:44;7.57;;;1.52;;
36445;SDS011;22472;50.848;-1.216;2023-07-13T01:11:11;6.90;;;1.25;;
36445;SDS011;22472;50.848;-1.216;2023-07-13T01:13:39;6.72;;;1.42;;
36445;SDS011;22472;50.848;-1.216;2023-07-13T01:16:11;4.50;;;0.98;;
36445;SDS011;22472;50.848;-1.216;2023-07-13T01:18:39;6.78;;;1.45;;
36445;SDS011;22472;50.848;-1.216;2023-07-13T01:21:08;6.75;;;1.10;;
36445;SDS011;22472;50.848;-1.216;2023-07-13T01:23:35;7.95;;;1.35;;
36445;SDS011;22472;50.848;-1.216;2023-07-13T01:26:03;9.48;;;1.30;;
36445;SDS011;22472;50.848;-1.216;2023-07-13T01:28:30;7.00;;;1.50;;
36445;SDS011;22472;50.848;-1.216;2023-07-13T01:31:02;9.55;;;1.30;;
36445;SDS011;22472;50.848;-1.216;2023-07-13T01:33:29;4.18;;;0.90;;
36445;SDS011;22472;50.848;-1.216;2023-07-13T01:35:57;6.75;;;1.02;;
36445;SDS011;22472;50.848;-1.216;2023-07-13T01:38:25;6.30;;;1.00;;
36445;SDS011;22472;50.848;-1.216;2023-07-13T01:40:53;8.95;;;1.40;;
36445;SDS011;22472;50.848;-1.216;2023-07-13T01:43:20;5.95;;;1.15;;
36445;SDS011;22472;50.848;-1.216;2023-07-13T01:45:47;6.15;;;1.30;;
36445;SDS011;22472;50.848;-1.216;2023-07-13T01:48:15;6.63;;;1.13;;
36445;SDS011;22472;50.848;-1.216;2023-07-13T01:50:42;4.57;;;1.20;;
36445;SDS011;22472;50.848;-1.216;2023-07-13T01:53:09;7.75;;;1.27;;
36445;SDS011;22472;50.848;-1.216;2023-07-13T01:55:38;6.20;;;0.98;;
36445;SDS011;22472;50.848;-1.216;2023-07-13T01:58:05;4.75;;;1.30;;
36445;SDS011;22472;50.848;-1.216;2023-07-13T02:00:33;9.80;;;1.50;;
36445;SDS011;22472;50.848;-1.216;2023-07-13T02:03:00;6.05;;;1.40;;
36445;SDS011;22472;50.848;-1.216;2023-07-13T02:05:27;4.90;;;1.10;;
36445;SDS011;22472;50.848;-1.216;2023-07-13T02:08:13;5.85;;;1.05;;
36445;SDS011;22472;50.848;-1.216;2023-07-13T02:10:41;5.65;;;1.30;;
36445;SDS011;22472;50.848;-1.216;2023-07-13T02:13:08;5.03;;;1.30;;
36445;SDS011;22472;50.848;-1.216;2023-07-13T02:15:38;8.30;;;1.27;;
36445;SDS011;22472;50.848;-1.216;2023-07-13T02:18:05;7.73;;;1.30;;
36445;SDS011;22472;50.848;-1.216;2023-07-13T02:20:33;7.40;;;1.50;;
36445;SDS011;22472;50.848;-1.216;2023-07-13T02:23:00;5.65;;;1.30;;
36445;SDS011;22472;50.848;-1.216;2023-07-13T02:25:27;5.22;;;1.20;;
36445;SDS011;22472;50.848;-1.216;2023-07-13T02:27:56;7.35;;;1.63;;
36445;SDS011;22472;50.848;-1.216;2023-07-13T02:30:23;5.88;;;1.42;;
36445;SDS011;22472;50.848;-1.216;2023-07-13T02:32:51;6.30;;;1.40;;
36445;SDS011;22472;50.848;-1.216;2023-07-13T02:35:18;5.60;;;1.45;;
36445;SDS011;22472;50.848;-1.216;2023-07-13T02:37:45;9.95;;;1.88;;
36445;SDS011;22472;50.848;-1.216;2023-07-13T02:40:12;10.43;;;1.90;;
36445;SDS011;22472;50.848;-1.216;2023-07-13T02:42:40;6.97;;;1.52;;
36445;SDS011;22472;50.848;-1.216;2023-07-13T02:45:09;8.48;;;1.60;;
36445;SDS011;22472;50.848;-1.216;2023-07-13T02:47:38;8.32;;;1.50;;
36445;SDS011;22472;50.848;-1.216;2023-07-13T02:50:05;7.05;;;1.40;;
36445;SDS011;22472;50.848;-1.216;2023-07-13T02:52:33;6.10;;;1.60;;
36445;SDS011;22472;50.848;-1.216;2023-07-13T02:55:00;7.70;;;1.50;;
36445;SDS011;22472;50.848;-1.216;2023-07-13T02:57:28;9.23;;;1.80;;
36445;SDS011;22472;50.848;-1.216;2023-07-13T02:59:55;7.90;;;1.75;;
36445;SDS011;22472;50.848;-1.216;2023-07-13T03:02:24;7.50;;;1.75;;
36445;SDS011;22472;50.848;-1.216;2023-07-13T03:04:53;9.65;;;1.70;;
36445;SDS011;22472;50.848;-1.216;2023-07-13T03:07:20;6.35;;;1.67;;
36445;SDS011;22472;50.848;-1.216;2023-07-13T03:09:47;6.57;;;1.73;;
36445;SDS011;22472;50.848;-1.216;2023-07-13T03:12:15;6.10;;;1.50;;
36445;SDS011;22472;50.848;-1.216;2023-07-13T03:14:42;8.30;;;1.98;;
36445;SDS011;22472;50.848;-1.216;2023-07-13T03:17:09;6.95;;;1.63;;
36445;SDS011;22472;50.848;-1.216;2023-07-13T03:19:38;7.35;;;1.67;;
36445;SDS011;22472;50.848;-1.216;2023-07-13T03:22:05;8.10;;;1.73;;
36445;SDS011;22472;50.848;-1.216;2023-07-13T03:24:33;7.68;;;2.08;;
36445;SDS011;22472;50.848;-1.216;2023-07-13T03:27:01;7.47;;;1.90;;
36445;SDS011;22472;50.848;-1.216;2023-07-13T03:29:28;6.28;;;2.10;;
36445;SDS011;22472;50.848;-1.216;2023-07-13T03:31:55;8.10;;;2.33;;
36445;SDS011;22472;50.848;-1.216;2023-07-13T03:34:23;6.70;;;2.10;;
36445;SDS011;22472;50.848;-1.216;2023-07-13T03:36:53;10.40;;;2.17;;
36445;SDS011;22472;50.848;-1.216;2023-07-13T03:39:20;6.50;;;2.05;;
36445;SDS011;22472;50.848;-1.216;2023-07-13T03:41:47;7.07;;;2.50;;
36445;SDS011;22472;50.848;-1.216;2023-07-13T03:44:15;6.40;;;2.17;;
36445;SDS011;22472;50.848;-1.216;2023-07-13T03:46:43;7.60;;;2.13;;
36445;SDS011;22472;50.848;-1.216;2023-07-13T03:49:10;8.35;;;2.20;;
36445;SDS011;22472;50.848;-1.216;2023-07-13T03:51:38;6.50;;;1.77;;
36445;SDS011;22472;50.848;-1.216;2023-07-13T03:54:07;7.10;;;1.80;;
36445;SDS011;22472;50.848;-1.216;2023-07-13T03:56:34;5.53;;;1.48;;
36445;SDS011;22472;50.848;-1.216;2023-07-13T03:59:01;7.40;;;1.50;;
36445;SDS011;22472;50.848;-1.216;2023-07-13T04:01:28;8.23;;;1.88;;
36445;SDS011;22472;50.848;-1.216;2023-07-13T04:03:55;4.05;;;1.50;;
36445;SDS011;22472;50.848;-1.216;2023-07-13T04:06:25;6.38;;;1.65;;
36445;SDS011;22472;50.848;-1.216;2023-07-13T04:08:53;5.45;;;1.90;;
36445;SDS011;22472;50.848;-1.216;2023-07-13T04:11:26;6.68;;;1.77;;
36445;SDS011;22472;50.848;-1.216;2023-07-13T04:13:54;5.00;;;1.40;;
36445;SDS011;22472;50.848;-1.216;2023-07-13T04:16:21;8.27;;;2.10;;
36445;SDS011;22472;50.848;-1.216;2023-07-13T04:18:49;9.27;;;2.00;;
36445;SDS011;22472;50.848;-1.216;2023-07-13T04:21:19;7.60;;;2.13;;
36445;SDS011;22472;50.848;-1.216;2023-07-13T04:23:47;7.07;;;1.77;;
36445;SDS011;22472;50.848;-1.216;2023-07-13T04:26:14;7.47;;;1.85;;
36445;SDS011;22472;50.848;-1.216;2023-07-13T04:28:43;4.10;;;1.60;;
36445;SDS011;22472;50.848;-1.216;2023-07-13T04:31:10;7.18;;;1.30;;
36445;SDS011;22472;50.848;-1.216;2023-07-13T04:33:37;8.07;;;1.45;;
36445;SDS011;22472;50.848;-1.216;2023-07-13T04:36:05;6.43;;;2.08;;
36445;SDS011;22472;50.848;-1.216;2023-07-13T04:38:35;7.95;;;1.88;;
36445;SDS011;22472;50.848;-1.216;2023-07-13T04:41:03;8.13;;;1.92;;
36445;SDS011;22472;50.848;-1.216;2023-07-13T04:43:31;6.80;;;1.77;;
36445;SDS011;22472;50.848;-1.216;2023-07-13T04:46:04;7.43;;;2.00;;
36445;SDS011;22472;50.848;-1.216;2023-07-13T04:48:31;5.68;;;1.70;;
36445;SDS011;22472;50.848;-1.216;2023-07-13T04:50:58;6.65;;;1.50;;
36445;SDS011;22472;50.848;-1.216;2023-07-13T04:53:27;10.07;;;1.85;;
36445;SDS011;22472;50.848;-1.216;2023-07-13T04:55:54;7.55;;;1.52;;
36445;SDS011;22472;50.848;-1.216;2023-07-13T04:58:22;7.57;;;1.73;;
36445;SDS011;22472;50.848;-1.216;2023-07-13T05:00:49;5.93;;;1.88;;
36445;SDS011;22472;50.848;-1.216;2023-07-13T05:03:18;8.10;;;1.20;;
36445;SDS011;22472;50.848;-1.216;2023-07-13T05:05:54;7.95;;;1.58;;
36445;SDS011;22472;50.848;-1.216;2023-07-13T05:08:21;6.85;;;1.60;;
36445;SDS011;22472;50.848;-1.216;2023-07-13T05:10:48;7.82;;;1.50;;
36445;SDS011;22472;50.848;-1.216;2023-07-13T05:13:16;6.40;;;1.52;;
36445;SDS011;22472;50.848;-1.216;2023-07-13T05:15:43;7.97;;;1.60;;
36445;SDS011;22472;50.848;-1.216;2023-07-13T05:18:10;6.43;;;1.10;;
36445;SDS011;22472;50.848;-1.216;2023-07-13T05:20:39;4.20;;;1.13;;
36445;SDS011;22472;50.848;-1.216;2023-07-13T05:23:06;5.90;;;1.23;;
36445;SDS011;22472;50.848;-1.216;2023-07-13T05:25:33;7.65;;;1.30;;
36445;SDS011;22472;50.848;-1.216;2023-07-13T05:28:01;5.65;;;1.10;;
36445;SDS011;22472;50.848;-1.216;2023-07-13T05:30:28;7.88;;;1.50;;
36445;SDS011;22472;50.848;-1.216;2023-07-13T05:32:55;6.53;;;1.38;;
36445;SDS011;22472;50.848;-1.216;2023-07-13T05:35:22;6.32;;;1.20;;
36445;SDS011;22472;50.848;-1.216;2023-07-13T05:37:51;9.10;;;1.67;;
36445;SDS011;22472;50.848;-1.216;2023-07-13T05:40:21;6.63;;;1.35;;
36445;SDS011;22472;50.848;-1.216;2023-07-13T05:42:51;8.75;;;1.60;;
36445;SDS011;22472;50.848;-1.216;2023-07-13T05:45:18;4.65;;;1.30;;
36445;SDS011;22472;50.848;-1.216;2023-07-13T05:47:45;6.25;;;1.42;;
36445;SDS011;22472;50.848;-1.216;2023-07-13T05:50:13;6.32;;;1.30;;
36445;SDS011;22472;50.848;-1.216;2023-07-13T05:52:40;6.28;;;1.33;;
36445;SDS011;22472;50.848;-1.216;2023-07-13T05:55:09;6.45;;;1.33;;
36445;SDS011;22472;50.848;-1.216;2023-07-13T05:57:36;7.20;;;1.33;;
36445;SDS011;22472;50.848;-1.216;2023-07-13T06:00:04;5.75;;;1.38;;
36445;SDS011;22472;50.848;-1.216;2023-07-13T06:02:31;9.55;;;1.20;;
36445;SDS011;22472;50.848;-1.216;2023-07-13T06:04:59;6.60;;;1.10;;
36445;SDS011;22472;50.848;-1.216;2023-07-13T06:07:26;3.38;;;0.85;;
36445;SDS011;22472;50.848;-1.216;2023-07-13T06:09:53;5.30;;;1.10;;
36445;SDS011;22472;50.848;-1.216;2023-07-13T06:12:22;6.53;;;1.35;;
36445;SDS011;22472;50.848;-1.216;2023-07-13T06:14:49;4.38;;;0.93;;
36445;SDS011;22472;50.848;-1.216;2023-07-13T06:17:17;8.25;;;1.30;;
36445;SDS011;22472;50.848;-1.216;2023-07-13T06:19:44;3.75;;;0.80;;
36445;SDS011;22472;50.848;-1.216;2023-07-13T06:22:11;3.72;;;0.90;;
36445;SDS011;22472;50.848;-1.216;2023-07-13T06:24:39;3.63;;;0.82;;
36445;SDS011;22472;50.848;-1.216;2023-07-13T06:27:06;4.72;;;0.80;;
36445;SDS011;22472;50.848;-1.216;2023-07-13T06:29:35;5.15;;;1.00;;
36445;SDS011;22472;50.848;-1.216;2023-07-13T06:32:02;5.15;;;1.33;;
36445;SDS011;22472;50.848;-1.216;2023-07-13T06:34:30;5.47;;;1.10;;
36445;SDS011;22472;50.848;-1.216;2023-07-13T06:36:57;4.45;;;0.80;;
36445;SDS011;22472;50.848;-1.216;2023-07-13T06:39:24;4.03;;;0.80;;
36445;SDS011;22472;50.848;-1.216;2023-07-13T06:41:51;4.00;;;0.80;;
36445;SDS011;22472;50.848;-1.216;2023-07-13T06:44:19;5.30;;;0.80;;
36445;SDS011;22472;50.848;-1.216;2023-07-13T06:46:47;5.03;;;0.90;;
36445;SDS011;22472;50.848;-1.216;2023-07-13T06:49:15;4.28;;;0.88;;
36445;SDS011;22472;50.848;-1.216;2023-07-13T06:51:42;6.45;;;1.00;;
36445;SDS011;22472;50.848;-1.216;2023-07-13T06:54:09;5.45;;;1.00;;
36445;SDS011;22472;50.848;-1.216;2023-07-13T06:56:36;4.30;;;0.80;;
36445;SDS011;22472;50.848;-1.216;2023-07-13T06:59:04;5.90;;;0.95;;
36445;SDS011;22472;50.848;-1.216;2023-07-13T07:01:31;5.25;;;1.00;;
36445;SDS011;22472;50.848;-1.216;2023-07-13T07:04:00;5.53;;;0.90;;
36445;SDS011;22472;50.848;-1.216;2023-07-13T07:06:27;5.32;;;0.95;;
36445;SDS011;22472;50.848;-1.216;2023-07-13T07:08:54;5.72;;;1.00;;
36445;SDS011;22472;50.848;-1.216;2023-07-13T07:11:25;3.83;;;1.08;;
36445;SDS011;22472;50.848;-1.216;2023-07-13T07:13:52;4.43;;;1.05;;
36445;SDS011;22472;50.848;-1.216;2023-07-13T07:16:20;5.82;;;1.00;;
36445;SDS011;22472;50.848;-1.216;2023-07-13T07:18:47;3.47;;;0.90;;
36445;SDS011;22472;50.848;-1.216;2023-07-13T07:21:16;6.75;;;1.02;;
36445;SDS011;22472;50.848;-1.216;2023-07-13T07:23:43;5.93;;;1.20;;
36445;SDS011;22472;50.848;-1.216;2023-07-13T07:26:10;5.13;;;0.90;;
36445;SDS011;22472;50.848;-1.216;2023-07-13T07:28:37;6.13;;;1.05;;
36445;SDS011;22472;50.848;-1.216;2023-07-13T07:31:05;4.95;;;0.82;;
36445;SDS011;22472;50.848;-1.216;2023-07-13T07:33:32;5.60;;;1.00;;
36445;SDS011;22472;50.848;-1.216;2023-07-13T07:35:59;5.68;;;0.95;;
36445;SDS011;22472;50.848;-1.216;2023-07-13T07:38:28;5.00;;;0.90;;
36445;SDS011;22472;50.848;-1.216;2023-07-13T07:40:55;6.07;;;0.95;;
36445;SDS011;22472;50.848;-1.216;2023-07-13T07:43:23;7.95;;;0.95;;
36445;SDS011;22472;50.848;-1.216;2023-07-13T07:45:50;7.30;;;0.98;;
36445;SDS011;22472;50.848;-1.216;2023-07-13T07:48:17;4.97;;;0.80;;
36445;SDS011;22472;50.848;-1.216;2023-07-13T07:50:44;4.22;;;0.82;;
36445;SDS011;22472;50.848;-1.216;2023-07-13T07:53:12;4.47;;;0.63;;
36445;SDS011;22472;50.848;-1.216;2023-07-13T07:55:41;5.80;;;0.82;;
36445;SDS011;22472;50.848;-1.216;2023-07-13T07:58:08;5.65;;;0.65;;
36445;SDS011;22472;50.848;-1.216;2023-07-13T08:00:35;6.05;;;0.70;;
36445;SDS011;22472;50.848;-1.216;2023-07-13T08:03:02;5.10;;;0.70;;
36445;SDS011;22472;50.848;-1.216;2023-07-13T08:05:30;6.15;;;0.90;;
36445;SDS011;22472;50.848;-1.216;2023-07-13T08:07:57;5.03;;;0.80;;
36445;SDS011;22472;50.848;-1.216;2023-07-13T08:10:24;6.28;;;0.85;;
36445;SDS011;22472;50.848;-1.216;2023-07-13T08:12:53;6.35;;;1.00;;
36445;SDS011;22472;50.848;-1.216;2023-07-13T08:15:20;6.07;;;0.90;;
36445;SDS011;22472;50.848;-1.216;2023-07-13T08:17:47;6.65;;;1.13;;
36445;SDS011;22472;50.848;-1.216;2023-07-13T08:20:15;4.28;;;0.63;;
36445;SDS011;22472;50.848;-1.216;2023-07-13T08:22:42;5.13;;;0.88;;
36445;SDS011;22472;50.848;-1.216;2023-07-13T08:25:10;9.80;;;1.20;;
36445;SDS011;22472;50.848;-1.216;2023-07-13T08:27:37;5.38;;;0.98;;
36445;SDS011;22472;50.848;-1.216;2023-07-13T08:30:06;3.95;;;0.80;;
36445;SDS011;22472;50.848;-1.216;2023-07-13T08:32:35;4.32;;;0.80;;
36445;SDS011;22472;50.848;-1.216;2023-07-13T08:35:04;6.25;;;0.98;;
36445;SDS011;22472;50.848;-1.216;2023-07-13T08:37:31;8.48;;;0.85;;
36445;SDS011;22472;50.848;-1.216;2023-07-13T08:39:58;3.83;;;0.80;;
36445;SDS011;22472;50.848;-1.216;2023-07-13T08:42:29;7.45;;;1.00;;
36445;SDS011;22472;50.848;-1.216;2023-07-13T08:45:03;7.00;;;0.90;;
36445;SDS011;22472;50.848;-1.216;2023-07-13T08:47:32;6.75;;;0.93;;
36445;SDS011;22472;50.848;-1.216;2023-07-13T08:50:00;3.65;;;0.75;;
36445;SDS011;22472;50.848;-1.216;2023-07-13T08:52:29;7.03;;;0.98;;
36445;SDS011;22472;50.848;-1.216;2023-07-13T08:54:58;7.15;;;0.65;;
36445;SDS011;22472;50.848;-1.216;2023-07-13T08:57:31;5.00;;;0.90;;
36445;SDS011;22472;50.848;-1.216;2023-07-13T08:59:59;5.88;;;0.68;;
36445;SDS011;22472;50.848;-1.216;2023-07-13T09:02:27;6.68;;;0.90;;
36445;SDS011;22472;50.848;-1.216;2023-07-13T09:04:58;8.52;;;1.00;;
36445;SDS011;22472;50.848;-1.216;2023-07-13T09:07:29;6.45;;;0.82;;
36445;SDS011;22472;50.848;-1.216;2023-07-13T09:10:02;4.03;;;0.60;;
36445;SDS011;22472;50.848;-1.216;2023-07-13T09:12:34;5.90;;;0.60;;
36445;SDS011;22472;50.848;-1.216;2023-07-13T09:15:03;5.35;;;0.80;;
36445;SDS011;22472;50.848;-1.216;2023-07-13T09:17:32;7.55;;;0.80;;
36445;SDS011;22472;50.848;-1.216;2023-07-13T09:20:04;5.25;;;0.80;;
36445;SDS011;22472;50.848;-1.216;2023-07-13T09:22:37;7.35;;;0.60;;
36445;SDS011;22472;50.848;-1.216;2023-07-13T09:25:06;7.85;;;0.95;;
36445;SDS011;22472;50.848;-1.216;2023-07-13T09:27:39;7.38;;;0.75;;
36445;SDS011;22472;50.848;-1.216;2023-07-13T09:30:17;4.32;;;0.50;;
36445;SDS011;22472;50.848;-1.216;2023-07-13T09:32:50;5.40;;;0.63;;
36445;SDS011;22472;50.848;-1.216;2023-07-13T09:35:21;5.63;;;0.90;;
36445;SDS011;22472;50.848;-1.216;2023-07-13T09:37:48;3.85;;;0.60;;
36445;SDS011;22472;50.848;-1.216;2023-07-13T09:40:17;3.28;;;0.50;;
36445;SDS011;22472;50.848;-1.216;2023-07-13T09:42:48;4.15;;;0.63;;
36445;SDS011;22472;50.848;-1.216;2023-07-13T09:45:17;3.67;;;0.50;;
36445;SDS011;22472;50.848;-1.216;2023-07-13T09:47:58;4.53;;;0.50;;
36445;SDS011;22472;50.848;-1.216;2023-07-13T09:50:27;5.78;;;0.52;;
36445;SDS011;22472;50.848;-1.216;2023-07-13T09:52:55;6.82;;;0.40;;
36445;SDS011;22472;50.848;-1.216;2023-07-13T09:55:25;7.65;;;0.80;;
36445;SDS011;22472;50.848;-1.216;2023-07-13T09:57:52;3.42;;;0.60;;
36445;SDS011;22472;50.848;-1.216;2023-07-13T10:00:20;6.03;;;0.60;;
36445;SDS011;22472;50.848;-1.216;2023-07-13T10:02:52;9.30;;;0.95;;
36445;SDS011;22472;50.848;-1.216;2023-07-13T10:05:24;7.57;;;0.93;;
36445;SDS011;22472;50.848;-1.216;2023-07-13T10:07:53;6.07;;;0.60;;
36445;SDS011;22472;50.848;-1.216;2023-07-13T10:10:23;5.15;;;0.98;;
36445;SDS011;22472;50.848;-1.216;2023-07-13T10:12:50;6.30;;;1.08;;
36445;SDS011;22472;50.848;-1.216;2023-07-13T10:15:18;3.90;;;0.63;;
36445;SDS011;22472;50.848;-1.216;2023-07-13T10:17:46;6.93;;;0.70;;
36445;SDS011;22472;50.848;-1.216;2023-07-13T10:20:14;5.18;;;0.70;;
36445;SDS011;22472;50.848;-1.216;2023-07-13T10:22:42;3.50;;;0.50;;
36445;SDS011;22472;50.848;-1.216;2023-07-13T10:25:17;2.60;;;0.50;;
36445;SDS011;22472;50.848;-1.216;2023-07-13T10:27:46;3.67;;;0.50;;
36445;SDS011;22472;50.848;-1.216;2023-07-13T10:30:15;6.20;;;0.70;;
36445;SDS011;22472;50.848;-1.216;2023-07-13T10:32:45;4.22;;;0.40;;
36445;SDS011;22472;50.848;-1.216;2023-07-13T10:35:13;7.30;;;0.60;;
36445;SDS011;22472;50.848;-1.216;2023-07-13T10:37:43;6.30;;;0.70;;
36445;SDS011;22472;50.848;-1.216;2023-07-13T10:40:12;4.18;;;0.90;;
36445;SDS011;22472;50.848;-1.216;2023-07-13T10:42:49;6.45;;;0.73;;
36445;SDS011;22472;50.848;-1.216;2023-07-13T10:45:18;5.43;;;0.70;;
36445;SDS011;22472;50.848;-1.216;2023-07-13T10:47:46;6.70;;;0.73;;
36445;SDS011;22472;50.848;-1.216;2023-07-13T10:50:15;5.28;;;0.88;;
36445;SDS011;22472;50.848;-1.216;2023-07-13T10:52:45;8.88;;;1.05;;
36445;SDS011;22472;50.848;-1.216;2023-07-13T10:58:18;4.88;;;0.70;;
36445;SDS011;22472;50.848;-1.216;2023-07-13T11:00:46;6.32;;;0.68;;
36445;SDS011;22472;50.848;-1.216;2023-07-13T11:03:15;5.50;;;0.93;;
36445;SDS011;22472;50.848;-1.216;2023-07-13T11:05:43;6.30;;;0.77;;
36445;SDS011;22472;50.848;-1.216;2023-07-13T11:08:16;4.32;;;0.90;;
36445;SDS011;22472;50.848;-1.216;2023-07-13T11:10:47;5.68;;;0.70;;
36445;SDS011;22472;50.848;-1.216;2023-07-13T11:16:03;4.80;;;0.73;;
36445;SDS011;22472;50.848;-1.216;2023-07-13T11:18:39;6.70;;;0.77;;
36445;SDS011;22472;50.848;-1.216;2023-07-13T11:21:17;2.65;;;0.60;;
36445;SDS011;22472;50.848;-1.216;2023-07-13T11:23:45;6.78;;;0.70;;
36445;SDS011;22472;50.848;-1.216;2023-07-13T11:29:07;4.57;;;0.80;;
36445;SDS011;22472;50.848;-1.216;2023-07-13T11:31:36;2.67;;;0.40;;
36445;SDS011;22472;50.848;-1.216;2023-07-13T11:34:06;4.22;;;0.75;;
36445;SDS011;22472;50.848;-1.216;2023-07-13T11:36:38;5.60;;;1.02;;
36445;SDS011;22472;50.848;-1.216;2023-07-13T11:39:11;4.15;;;0.52;;
36445;SDS011;22472;50.848;-1.216;2023-07-13T11:41:43;4.78;;;0.90;;
36445;SDS011;22472;50.848;-1.216;2023-07-13T11:44:12;4.75;;;0.73;;
36445;SDS011;22472;50.848;-1.216;2023-07-13T11:46:46;4.63;;;1.02;;
36445;SDS011;22472;50.848;-1.216;2023-07-13T11:49:15;5.20;;;0.70;;
36445;SDS011;22472;50.848;-1.216;2023-07-13T11:51:43;5.63;;;0.80;;
36445;SDS011;22472;50.848;-1.216;2023-07-13T11:54:14;5.07;;;1.15;;
36445;SDS011;22472;50.848;-1.216;2023-07-13T11:56:42;5.63;;;1.20;;
36445;SDS011;22472;50.848;-1.216;2023-07-13T11:59:11;4.75;;;1.15;;
36445;SDS011;22472;50.848;-1.216;2023-07-13T12:01:42;7.55;;;1.30;;
36445;SDS011;22472;50.848;-1.216;2023-07-13T12:04:14;9.02;;;1.30;;
36445;SDS011;22472;50.848;-1.216;2023-07-13T12:06:47;6.85;;;1.50;;
36445;SDS011;22472;50.848;-1.216;2023-07-13T12:09:20;6.55;;;1.30;;
36445;SDS011;22472;50.848;-1.216;2023-07-13T12:11:50;7.97;;;1.40;;
36445;SDS011;22472;50.848;-1.216;2023-07-13T12:14:19;7.88;;;1.77;;
36445;SDS011;22472;50.848;-1.216;2023-07-13T12:16:50;6.32;;;1.33;;
36445;SDS011;22472;50.848;-1.216;2023-07-13T12:19:19;8.10;;;1.38;;
36445;SDS011;22472;50.848;-1.216;2023-07-13T12:21:47;5.78;;;1.38;;
36445;SDS011;22472;50.848;-1.216;2023-07-13T12:24:15;5.10;;;1.30;;
36445;SDS011;22472;50.848;-1.216;2023-07-13T12:26:43;9.82;;;1.50;;
36445;SDS011;22472;50.848;-1.216;2023-07-13T12:29:11;6.70;;;1.45;;
36445;SDS011;22472;50.848;-1.216;2023-07-13T12:31:43;8.55;;;1.85;;
36445;SDS011;22472;50.848;-1.216;2023-07-13T12:34:11;10.32;;;1.63;;
36445;SDS011;22472;50.848;-1.216;2023-07-13T12:36:40;8.45;;;1.63;;
36445;SDS011;22472;50.848;-1.216;2023-07-13T12:41:35;9.45;;;1.52;;
36445;SDS011;22472;50.848;-1.216;2023-07-13T12:44:03;6.30;;;1.35;;
36445;SDS011;22472;50.848;-1.216;2023-07-13T12:46:30;10.45;;;1.67;;
36445;SDS011;22472;50.848;-1.216;2023-07-13T12:48:57;7.43;;;1.60;;
36445;SDS011;22472;50.848;-1.216;2023-07-13T12:51:25;8.48;;;1.65;;
36445;SDS011;22472;50.848;-1.216;2023-07-13T12:53:56;7.63;;;1.50;;
36445;SDS011;22472;50.848;-1.216;2023-07-13T12:56:26;8.43;;;1.80;;
36445;SDS011;22472;50.848;-1.216;2023-07-13T12:58:56;10.52;;;2.10;;
36445;SDS011;22472;50.848;-1.216;2023-07-13T13:01:25;8.73;;;1.90;;
36445;SDS011;22472;50.848;-1.216;2023-07-13T13:03:54;9.48;;;2.08;;
36445;SDS011;22472;50.848;-1.216;2023-07-13T13:06:23;9.30;;;2.10;;
36445;SDS011;22472;50.848;-1.216;2023-07-13T13:08:51;7.67;;;1.70;;
36445;SDS011;22472;50.848;-1.216;2023-07-13T13:11:21;9.32;;;1.90;;
36445;SDS011;22472;50.848;-1.216;2023-07-13T13:13:49;8.10;;;1.40;;
36445;SDS011;22472;50.848;-1.216;2023-07-13T13:16:20;8.70;;;1.77;;
36445;SDS011;22472;50.848;-1.216;2023-07-13T13:18:48;9.07;;;1.67;;
36445;SDS011;22472;50.848;-1.216;2023-07-13T13:21:16;7.82;;;1.60;;
36445;SDS011;22472;50.848;-1.216;2023-07-13T13:23:44;12.27;;;1.85;;
36445;SDS011;22472;50.848;-1.216;2023-07-13T13:26:12;8.75;;;2.03;;
36445;SDS011;22472;50.848;-1.216;2023-07-13T13:28:41;10.82;;;1.65;;
36445;SDS011;22472;50.848;-1.216;2023-07-13T13:31:09;8.98;;;1.60;;
36445;SDS011;22472;50.848;-1.216;2023-07-13T13:33:38;8.50;;;1.25;;
36445;SDS011;22472;50.848;-1.216;2023-07-13T13:36:12;7.20;;;1.35;;
36445;SDS011;22472;50.848;-1.216;2023-07-13T13:38:40;7.45;;;1.48;;
36445;SDS011;22472;50.848;-1.216;2023-07-13T13:41:09;12.10;;;1.95;;
36445;SDS011;22472;50.848;-1.216;2023-07-13T13:43:36;6.80;;;1.20;;
36445;SDS011;22472;50.848;-1.216;2023-07-13T13:46:09;7.40;;;1.70;;
36445;SDS011;22472;50.848;-1.216;2023-07-13T13:48:38;7.32;;;1.42;;
36445;SDS011;22472;50.848;-1.216;2023-07-13T13:51:11;7.88;;;1.48;;
36445;SDS011;22472;50.848;-1.216;2023-07-13T13:53:39;7.80;;;1.48;;
36445;SDS011;22472;50.848;-1.216;2023-07-13T13:56:06;9.82;;;1.98;;
36445;SDS011;22472;50.848;-1.216;2023-07-13T13:58:34;7.43;;;1.58;;
36445;SDS011;22472;50.848;-1.216;2023-07-13T14:01:01;10.27;;;1.50;;
36445;SDS011;22472;50.848;-1.216;2023-07-13T14:03:32;7.78;;;1.70;;
36445;SDS011;22472;50.848;-1.216;2023-07-13T14:05:59;8.73;;;1.80;;
36445;SDS011;22472;50.848;-1.216;2023-07-13T14:08:27;7.28;;;1.30;;
36445;SDS011;22472;50.848;-1.216;2023-07-13T14:10:55;9.32;;;1.50;;
36445;SDS011;22472;50.848;-1.216;2023-07-13T14:13:24;4.55;;;1.17;;
36445;SDS011;22472;50.848;-1.216;2023-07-13T14:15:52;8.48;;;1.60;;
36445;SDS011;22472;50.848;-1.216;2023-07-13T14:18:20;6.45;;;1.40;;
36445;SDS011;22472;50.848;-1.216;2023-07-13T14:20:51;7.77;;;1.50;;
36445;SDS011;22472;50.848;-1.216;2023-07-13T14:23:18;5.30;;;1.08;;
36445;SDS011;22472;50.848;-1.216;2023-07-13T14:25:45;4.88;;;1.10;;
36445;SDS011;22472;50.848;-1.216;2023-07-13T14:28:20;4.90;;;1.02;;
36445;SDS011;22472;50.848;-1.216;2023-07-13T14:30:47;6.13;;;1.05;;
36445;SDS011;22472;50.848;-1.216;2023-07-13T14:33:15;7.22;;;1.55;;
36445;SDS011;22472;50.848;-1.216;2023-07-13T14:35:42;5.65;;;1.10;;
36445;SDS011;22472;50.848;-1.216;2023-07-13T14:38:11;6.03;;;1.10;;
36445;SDS011;22472;50.848;-1.216;2023-07-13T14:40:39;7.00;;;1.15;;
36445;SDS011;22472;50.848;-1.216;2023-07-13T14:43:09;6.55;;;1.30;;
36445;SDS011;22472;50.848;-1.216;2023-07-13T14:45:38;6.53;;;1.10;;
36445;SDS011;22472;50.848;-1.216;2023-07-13T14:48:10;5.15;;;0.75;;
36445;SDS011;22472;50.848;-1.216;2023-07-13T14:50:39;6.38;;;0.80;;
36445;SDS011;22472;50.848;-1.216;2023-07-13T14:53:08;6.53;;;1.17;;